Terminal Aerodrome Forecast
Issued by NWS

Home | Current Version | Previous Version | Text Only | Print | Product List | Glossary On
Versions: 1 2 3 4 5 6 7 8 9 10 11 12 13 14 15 16 17
201
FTUS44 KLIX 271734
TAFGPT
TAF
KGPT 271734Z 2718/2818 17006KT P6SM SCT025 BKN050
     FM272000 17010KT P6SM SCT050 SCT250
     FM280200 18007KT P6SM FEW025 BKN250
     FM280400 19010KT P6SM BKN015
      TEMPO 2809/2813 BKN008
     FM281400 18009KT P6SM SCT015 BKN025
     FM281700 18011KT P6SM SCT025 BKN040=

USA.gov is the U.S. government's official web portal to all federal, state and local government web resources and services.